sensor_id;sensor_type;location;lat;lon;timestamp;P1;durP1;ratioP1;P2;durP2;ratioP2
3865;SDS011;1948;53.250;10.412;2022-10-16T00:01:43;7.30;;;6.80;;
3865;SDS011;1948;53.250;10.412;2022-10-16T00:04:10;7.37;;;6.80;;
3865;SDS011;1948;53.250;10.412;2022-10-16T00:06:39;7.97;;;7.23;;
3865;SDS011;1948;53.250;10.412;2022-10-16T00:09:06;6.37;;;5.77;;
3865;SDS011;1948;53.250;10.412;2022-10-16T00:11:38;6.90;;;6.50;;
3865;SDS011;1948;53.250;10.412;2022-10-16T00:14:08;8.13;;;6.90;;
3865;SDS011;1948;53.250;10.412;2022-10-16T00:16:38;6.93;;;6.30;;
3865;SDS011;1948;53.250;10.412;2022-10-16T00:19:06;9.53;;;6.70;;
3865;SDS011;1948;53.250;10.412;2022-10-16T00:21:33;6.80;;;6.20;;
3865;SDS011;1948;53.250;10.412;2022-10-16T00:24:01;17.67;;;7.00;;
3865;SDS011;1948;53.250;10.412;2022-10-16T00:26:32;7.80;;;6.90;;
3865;SDS011;1948;53.250;10.412;2022-10-16T00:29:01;7.43;;;6.83;;
3865;SDS011;1948;53.250;10.412;2022-10-16T00:31:34;11.53;;;7.13;;
3865;SDS011;1948;53.250;10.412;2022-10-16T00:34:01;6.80;;;6.20;;
3865;SDS011;1948;53.250;10.412;2022-10-16T00:36:31;7.73;;;6.40;;
3865;SDS011;1948;53.250;10.412;2022-10-16T00:38:58;7.73;;;6.60;;
3865;SDS011;1948;53.250;10.412;2022-10-16T00:41:29;6.63;;;5.97;;
3865;SDS011;1948;53.250;10.412;2022-10-16T00:43:57;10.97;;;5.90;;
3865;SDS011;1948;53.250;10.412;2022-10-16T00:49:15;5.23;;;4.93;;
3865;SDS011;1948;53.250;10.412;2022-10-16T00:51:47;8.40;;;5.87;;
3865;SDS011;1948;53.250;10.412;2022-10-16T00:54:27;5.23;;;4.80;;
3865;SDS011;1948;53.250;10.412;2022-10-16T00:56:56;5.63;;;5.37;;
3865;SDS011;1948;53.250;10.412;2022-10-16T00:59:32;9.27;;;4.90;;
3865;SDS011;1948;53.250;10.412;2022-10-16T01:02:05;6.87;;;4.87;;
3865;SDS011;1948;53.250;10.412;2022-10-16T01:04:41;5.63;;;4.50;;
3865;SDS011;1948;53.250;10.412;2022-10-16T01:08:04;5.23;;;4.43;;
3865;SDS011;1948;53.250;10.412;2022-10-16T01:10:24;4.20;;;3.77;;
3865;SDS011;1948;53.250;10.412;2022-10-16T01:13:05;4.67;;;4.27;;
3865;SDS011;1948;53.250;10.412;2022-10-16T01:15:55;3.60;;;3.27;;
3865;SDS011;1948;53.250;10.412;2022-10-16T01:18:53;12.53;;;4.03;;
3865;SDS011;1948;53.250;10.412;2022-10-16T01:21:31;3.77;;;3.47;;
3865;SDS011;1948;53.250;10.412;2022-10-16T01:27:09;8.60;;;3.33;;
3865;SDS011;1948;53.250;10.412;2022-10-16T01:32:34;5.43;;;3.20;;
3865;SDS011;1948;53.250;10.412;2022-10-16T01:35:32;4.87;;;3.20;;
3865;SDS011;1948;53.250;10.412;2022-10-16T01:38:17;6.63;;;3.00;;
3865;SDS011;1948;53.250;10.412;2022-10-16T01:40:56;3.90;;;2.90;;
3865;SDS011;1948;53.250;10.412;2022-10-16T01:43:37;8.77;;;3.17;;
3865;SDS011;1948;53.250;10.412;2022-10-16T01:46:24;14.00;;;3.30;;
3865;SDS011;1948;53.250;10.412;2022-10-16T01:48:52;7.17;;;2.43;;
3865;SDS011;1948;53.250;10.412;2022-10-16T01:51:21;6.43;;;2.57;;
3865;SDS011;1948;53.250;10.412;2022-10-16T01:53:51;4.00;;;2.90;;
3865;SDS011;1948;53.250;10.412;2022-10-16T01:56:25;2.60;;;2.50;;
3865;SDS011;1948;53.250;10.412;2022-10-16T01:58:57;3.37;;;2.33;;
3865;SDS011;1948;53.250;10.412;2022-10-16T02:01:30;4.13;;;2.57;;
3865;SDS011;1948;53.250;10.412;2022-10-16T02:04:03;13.63;;;2.93;;
3865;SDS011;1948;53.250;10.412;2022-10-16T02:06:41;8.33;;;2.60;;
3865;SDS011;1948;53.250;10.412;2022-10-16T02:09:10;5.20;;;2.87;;
3865;SDS011;1948;53.250;10.412;2022-10-16T02:11:39;4.30;;;2.77;;
3865;SDS011;1948;53.250;10.412;2022-10-16T02:14:06;3.03;;;2.07;;
3865;SDS011;1948;53.250;10.412;2022-10-16T02:16:38;4.10;;;1.87;;
3865;SDS011;1948;53.250;10.412;2022-10-16T02:19:10;2.13;;;1.90;;
3865;SDS011;1948;53.250;10.412;2022-10-16T02:21:55;2.17;;;2.07;;
3865;SDS011;1948;53.250;10.412;2022-10-16T02:30:06;4.60;;;2.03;;
3865;SDS011;1948;53.250;10.412;2022-10-16T02:32:44;3.43;;;2.50;;
3865;SDS011;1948;53.250;10.412;2022-10-16T02:35:15;3.50;;;1.90;;
3865;SDS011;1948;53.250;10.412;2022-10-16T02:37:46;3.87;;;1.93;;
3865;SDS011;1948;53.250;10.412;2022-10-16T02:40:17;1.60;;;1.50;;
3865;SDS011;1948;53.250;10.412;2022-10-16T02:42:51;6.00;;;2.07;;
3865;SDS011;1948;53.250;10.412;2022-10-16T02:45:19;4.10;;;2.00;;
3865;SDS011;1948;53.250;10.412;2022-10-16T02:47:52;7.97;;;1.60;;
3865;SDS011;1948;53.250;10.412;2022-10-16T02:50:19;3.27;;;1.47;;
3865;SDS011;1948;53.250;10.412;2022-10-16T02:52:46;3.40;;;2.00;;
3865;SDS011;1948;53.250;10.412;2022-10-16T02:55:16;1.83;;;1.60;;
3865;SDS011;1948;53.250;10.412;2022-10-16T02:57:43;4.03;;;2.00;;
3865;SDS011;1948;53.250;10.412;2022-10-16T03:00:11;4.73;;;1.60;;
3865;SDS011;1948;53.250;10.412;2022-10-16T03:02:44;3.73;;;2.40;;
3865;SDS011;1948;53.250;10.412;2022-10-16T03:05:11;11.93;;;2.40;;
3865;SDS011;1948;53.250;10.412;2022-10-16T03:07:40;3.57;;;1.87;;
3865;SDS011;1948;53.250;10.412;2022-10-16T03:10:07;3.50;;;2.00;;
3865;SDS011;1948;53.250;10.412;2022-10-16T03:12:37;11.23;;;1.67;;
3865;SDS011;1948;53.250;10.412;2022-10-16T03:15:04;4.67;;;1.80;;
3865;SDS011;1948;53.250;10.412;2022-10-16T03:17:34;4.20;;;1.90;;
3865;SDS011;1948;53.250;10.412;2022-10-16T03:20:04;3.80;;;1.90;;
3865;SDS011;1948;53.250;10.412;2022-10-16T03:22:31;4.50;;;1.50;;
3865;SDS011;1948;53.250;10.412;2022-10-16T03:25:01;2.90;;;1.57;;
3865;SDS011;1948;53.250;10.412;2022-10-16T03:27:29;3.07;;;1.93;;
3865;SDS011;1948;53.250;10.412;2022-10-16T03:29:58;2.13;;;2.03;;
3865;SDS011;1948;53.250;10.412;2022-10-16T03:32:27;3.73;;;2.07;;
3865;SDS011;1948;53.250;10.412;2022-10-16T03:34:56;5.00;;;2.00;;
3865;SDS011;1948;53.250;10.412;2022-10-16T03:37:23;4.10;;;2.40;;
3865;SDS011;1948;53.250;10.412;2022-10-16T03:39:51;4.20;;;1.93;;
3865;SDS011;1948;53.250;10.412;2022-10-16T03:42:21;6.23;;;1.90;;
3865;SDS011;1948;53.250;10.412;2022-10-16T03:44:52;2.17;;;1.47;;
3865;SDS011;1948;53.250;10.412;2022-10-16T03:47:21;2.80;;;1.57;;
3865;SDS011;1948;53.250;10.412;2022-10-16T03:49:50;1.70;;;1.60;;
3865;SDS011;1948;53.250;10.412;2022-10-16T03:52:17;6.00;;;1.90;;
3865;SDS011;1948;53.250;10.412;2022-10-16T03:54:48;9.47;;;2.37;;
3865;SDS011;1948;53.250;10.412;2022-10-16T03:57:20;10.13;;;1.93;;
3865;SDS011;1948;53.250;10.412;2022-10-16T03:59:47;6.33;;;2.03;;
3865;SDS011;1948;53.250;10.412;2022-10-16T04:02:14;4.47;;;2.50;;
3865;SDS011;1948;53.250;10.412;2022-10-16T04:04:43;1.90;;;1.50;;
3865;SDS011;1948;53.250;10.412;2022-10-16T04:07:11;2.77;;;2.20;;
3865;SDS011;1948;53.250;10.412;2022-10-16T04:09:38;7.97;;;2.07;;
3865;SDS011;1948;53.250;10.412;2022-10-16T04:12:05;2.20;;;1.93;;
3865;SDS011;1948;53.250;10.412;2022-10-16T04:14:35;2.50;;;1.73;;
3865;SDS011;1948;53.250;10.412;2022-10-16T04:17:02;1.93;;;1.83;;
3865;SDS011;1948;53.250;10.412;2022-10-16T04:19:31;3.23;;;2.10;;
3865;SDS011;1948;53.250;10.412;2022-10-16T04:21:58;2.43;;;2.33;;
3865;SDS011;1948;53.250;10.412;2022-10-16T04:24:25;5.50;;;2.50;;
3865;SDS011;1948;53.250;10.412;2022-10-16T04:26:54;7.90;;;1.80;;
3865;SDS011;1948;53.250;10.412;2022-10-16T04:29:21;6.37;;;2.10;;
3865;SDS011;1948;53.250;10.412;2022-10-16T04:31:50;8.10;;;2.30;;
3865;SDS011;1948;53.250;10.412;2022-10-16T04:34:20;5.60;;;2.20;;
3865;SDS011;1948;53.250;10.412;2022-10-16T04:36:47;8.67;;;2.43;;
3865;SDS011;1948;53.250;10.412;2022-10-16T04:39:16;2.80;;;1.90;;
3865;SDS011;1948;53.250;10.412;2022-10-16T04:41:45;2.33;;;2.23;;
3865;SDS011;1948;53.250;10.412;2022-10-16T04:44:12;4.50;;;2.17;;
3865;SDS011;1948;53.250;10.412;2022-10-16T04:46:39;8.40;;;2.07;;
3865;SDS011;1948;53.250;10.412;2022-10-16T04:49:06;6.07;;;2.70;;
3865;SDS011;1948;53.250;10.412;2022-10-16T04:51:32;10.63;;;2.80;;
3865;SDS011;1948;53.250;10.412;2022-10-16T04:54:02;3.50;;;2.30;;
3865;SDS011;1948;53.250;10.412;2022-10-16T04:56:31;3.73;;;2.67;;
3865;SDS011;1948;53.250;10.412;2022-10-16T04:58:58;9.43;;;2.60;;
3865;SDS011;1948;53.250;10.412;2022-10-16T05:01:25;4.40;;;2.23;;
3865;SDS011;1948;53.250;10.412;2022-10-16T05:03:54;3.13;;;2.40;;
3865;SDS011;1948;53.250;10.412;2022-10-16T05:06:24;14.47;;;2.70;;
3865;SDS011;1948;53.250;10.412;2022-10-16T05:08:51;3.83;;;2.10;;
3865;SDS011;1948;53.250;10.412;2022-10-16T05:11:21;2.40;;;2.30;;
3865;SDS011;1948;53.250;10.412;2022-10-16T05:13:50;4.47;;;2.10;;
3865;SDS011;1948;53.250;10.412;2022-10-16T05:16:21;7.03;;;2.43;;
3865;SDS011;1948;53.250;10.412;2022-10-16T05:18:48;7.20;;;2.80;;
3865;SDS011;1948;53.250;10.412;2022-10-16T05:21:18;7.33;;;2.97;;
3865;SDS011;1948;53.250;10.412;2022-10-16T05:23:45;4.47;;;2.30;;
3865;SDS011;1948;53.250;10.412;2022-10-16T05:26:12;4.70;;;2.33;;
3865;SDS011;1948;53.250;10.412;2022-10-16T05:28:42;6.97;;;2.60;;
3865;SDS011;1948;53.250;10.412;2022-10-16T05:31:09;9.27;;;2.50;;
3865;SDS011;1948;53.250;10.412;2022-10-16T05:33:39;2.40;;;2.20;;
3865;SDS011;1948;53.250;10.412;2022-10-16T05:36:08;6.33;;;2.50;;
3865;SDS011;1948;53.250;10.412;2022-10-16T05:38:36;7.80;;;2.80;;
3865;SDS011;1948;53.250;10.412;2022-10-16T05:41:04;6.53;;;2.57;;
3865;SDS011;1948;53.250;10.412;2022-10-16T05:43:31;10.80;;;2.40;;
3865;SDS011;1948;53.250;10.412;2022-10-16T05:46:05;5.27;;;2.70;;
3865;SDS011;1948;53.250;10.412;2022-10-16T05:48:32;4.63;;;2.40;;
3865;SDS011;1948;53.250;10.412;2022-10-16T05:51:07;5.57;;;3.27;;
3865;SDS011;1948;53.250;10.412;2022-10-16T05:54:01;2.90;;;2.70;;
3865;SDS011;1948;53.250;10.412;2022-10-16T05:56:30;5.17;;;2.60;;
3865;SDS011;1948;53.250;10.412;2022-10-16T05:58:57;4.37;;;2.20;;
3865;SDS011;1948;53.250;10.412;2022-10-16T06:01:26;8.00;;;2.87;;
3865;SDS011;1948;53.250;10.412;2022-10-16T06:03:53;2.53;;;2.43;;
3865;SDS011;1948;53.250;10.412;2022-10-16T06:06:22;7.50;;;2.50;;
3865;SDS011;1948;53.250;10.412;2022-10-16T06:08:56;5.93;;;2.43;;
3865;SDS011;1948;53.250;10.412;2022-10-16T06:11:28;2.60;;;2.13;;
3865;SDS011;1948;53.250;10.412;2022-10-16T06:13:58;9.00;;;2.90;;
3865;SDS011;1948;53.250;10.412;2022-10-16T06:16:33;2.67;;;2.50;;
3865;SDS011;1948;53.250;10.412;2022-10-16T06:19:05;3.10;;;2.50;;
3865;SDS011;1948;53.250;10.412;2022-10-16T06:21:34;5.43;;;2.60;;
3865;SDS011;1948;53.250;10.412;2022-10-16T06:24:02;3.73;;;2.47;;
3865;SDS011;1948;53.250;10.412;2022-10-16T06:26:33;13.03;;;4.33;;
3865;SDS011;1948;53.250;10.412;2022-10-16T06:29:03;10.20;;;2.13;;
3865;SDS011;1948;53.250;10.412;2022-10-16T06:31:31;6.20;;;3.10;;
3865;SDS011;1948;53.250;10.412;2022-10-16T06:34:03;2.70;;;2.30;;
3865;SDS011;1948;53.250;10.412;2022-10-16T06:36:32;5.10;;;2.67;;
3865;SDS011;1948;53.250;10.412;2022-10-16T06:38:59;2.97;;;2.77;;
3865;SDS011;1948;53.250;10.412;2022-10-16T06:41:30;6.13;;;2.50;;
3865;SDS011;1948;53.250;10.412;2022-10-16T06:44:08;13.97;;;2.80;;
3865;SDS011;1948;53.250;10.412;2022-10-16T06:46:36;9.23;;;2.60;;
3865;SDS011;1948;53.250;10.412;2022-10-16T06:49:03;6.13;;;2.60;;
3865;SDS011;1948;53.250;10.412;2022-10-16T06:51:33;8.40;;;2.50;;
3865;SDS011;1948;53.250;10.412;2022-10-16T06:54:08;5.83;;;2.33;;
3865;SDS011;1948;53.250;10.412;2022-10-16T06:56:41;2.73;;;2.53;;
3865;SDS011;1948;53.250;10.412;2022-10-16T06:59:09;3.43;;;2.67;;
3865;SDS011;1948;53.250;10.412;2022-10-16T07:01:36;2.60;;;2.40;;
3865;SDS011;1948;53.250;10.412;2022-10-16T07:04:03;4.20;;;2.30;;
3865;SDS011;1948;53.250;10.412;2022-10-16T07:06:36;3.07;;;2.40;;
3865;SDS011;1948;53.250;10.412;2022-10-16T07:09:07;3.60;;;2.30;;
3865;SDS011;1948;53.250;10.412;2022-10-16T07:11:40;4.37;;;2.30;;
3865;SDS011;1948;53.250;10.412;2022-10-16T07:14:15;13.07;;;2.83;;
3865;SDS011;1948;53.250;10.412;2022-10-16T07:16:47;4.33;;;3.20;;
3865;SDS011;1948;53.250;10.412;2022-10-16T07:19:18;7.30;;;2.50;;
3865;SDS011;1948;53.250;10.412;2022-10-16T07:21:58;2.57;;;2.40;;
3865;SDS011;1948;53.250;10.412;2022-10-16T07:24:29;21.83;;;2.80;;
3865;SDS011;1948;53.250;10.412;2022-10-16T07:26:57;5.17;;;3.03;;
3865;SDS011;1948;53.250;10.412;2022-10-16T07:29:32;3.30;;;2.13;;
3865;SDS011;1948;53.250;10.412;2022-10-16T07:32:05;4.63;;;2.40;;
3865;SDS011;1948;53.250;10.412;2022-10-16T07:34:37;24.60;;;3.50;;
3865;SDS011;1948;53.250;10.412;2022-10-16T07:37:05;2.77;;;2.13;;
3865;SDS011;1948;53.250;10.412;2022-10-16T07:39:33;6.10;;;2.77;;
3865;SDS011;1948;53.250;10.412;2022-10-16T07:42:00;7.50;;;2.27;;
3865;SDS011;1948;53.250;10.412;2022-10-16T07:44:32;7.10;;;2.20;;
3865;SDS011;1948;53.250;10.412;2022-10-16T07:46:59;13.60;;;2.30;;
3865;SDS011;1948;53.250;10.412;2022-10-16T07:49:31;2.83;;;2.57;;
3865;SDS011;1948;53.250;10.412;2022-10-16T07:52:01;10.07;;;2.10;;
3865;SDS011;1948;53.250;10.412;2022-10-16T07:54:30;9.07;;;2.30;;
3865;SDS011;1948;53.250;10.412;2022-10-16T07:56:57;3.57;;;1.93;;
3865;SDS011;1948;53.250;10.412;2022-10-16T07:59:34;7.60;;;2.20;;
3865;SDS011;1948;53.250;10.412;2022-10-16T08:02:07;1.93;;;1.70;;
3865;SDS011;1948;53.250;10.412;2022-10-16T08:04:35;4.73;;;1.90;;
3865;SDS011;1948;53.250;10.412;2022-10-16T08:07:06;6.80;;;1.53;;
3865;SDS011;1948;53.250;10.412;2022-10-16T08:09:39;7.90;;;2.17;;
3865;SDS011;1948;53.250;10.412;2022-10-16T08:12:08;6.00;;;1.87;;
3865;SDS011;1948;53.250;10.412;2022-10-16T08:14:45;4.23;;;1.90;;
3865;SDS011;1948;53.250;10.412;2022-10-16T08:17:15;5.23;;;1.40;;
3865;SDS011;1948;53.250;10.412;2022-10-16T08:19:49;1.83;;;1.73;;
3865;SDS011;1948;53.250;10.412;2022-10-16T08:22:20;14.60;;;2.60;;
3865;SDS011;1948;53.250;10.412;2022-10-16T08:24:49;2.13;;;1.90;;
3865;SDS011;1948;53.250;10.412;2022-10-16T08:27:16;1.53;;;1.37;;
3865;SDS011;1948;53.250;10.412;2022-10-16T08:29:44;2.13;;;1.70;;
3865;SDS011;1948;53.250;10.412;2022-10-16T08:32:17;1.57;;;1.40;;
3865;SDS011;1948;53.250;10.412;2022-10-16T08:34:53;1.70;;;1.60;;
3865;SDS011;1948;53.250;10.412;2022-10-16T08:37:20;1.60;;;1.40;;
3865;SDS011;1948;53.250;10.412;2022-10-16T08:39:56;10.80;;;1.40;;
3865;SDS011;1948;53.250;10.412;2022-10-16T08:42:32;1.70;;;1.60;;
3865;SDS011;1948;53.250;10.412;2022-10-16T08:45:17;1.93;;;1.60;;
3865;SDS011;1948;53.250;10.412;2022-10-16T08:50:52;4.63;;;1.77;;
3865;SDS011;1948;53.250;10.412;2022-10-16T08:53:22;4.83;;;1.87;;
3865;SDS011;1948;53.250;10.412;2022-10-16T08:55:59;4.73;;;1.50;;
3865;SDS011;1948;53.250;10.412;2022-10-16T08:58:31;9.00;;;1.87;;
3865;SDS011;1948;53.250;10.412;2022-10-16T09:01:04;1.47;;;1.47;;
3865;SDS011;1948;53.250;10.412;2022-10-16T09:16:42;2.50;;;1.20;;
3865;SDS011;1948;53.250;10.412;2022-10-16T09:22:12;1.53;;;1.43;;
3865;SDS011;1948;53.250;10.412;2022-10-16T09:24:44;2.00;;;1.20;;
3865;SDS011;1948;53.250;10.412;2022-10-16T09:27:12;3.03;;;1.60;;
3865;SDS011;1948;53.250;10.412;2022-10-16T09:29:43;5.60;;;1.50;;
3865;SDS011;1948;53.250;10.412;2022-10-16T09:32:17;4.03;;;1.87;;
3865;SDS011;1948;53.250;10.412;2022-10-16T09:34:51;3.50;;;1.60;;
3865;SDS011;1948;53.250;10.412;2022-10-16T09:37:28;1.60;;;1.60;;
3865;SDS011;1948;53.250;10.412;2022-10-16T09:40:04;2.37;;;1.00;;
3865;SDS011;1948;53.250;10.412;2022-10-16T09:42:34;2.00;;;1.20;;
3865;SDS011;1948;53.250;10.412;2022-10-16T09:45:03;4.93;;;1.20;;
3865;SDS011;1948;53.250;10.412;2022-10-16T09:47:31;1.20;;;1.10;;
3865;SDS011;1948;53.250;10.412;2022-10-16T09:50:19;2.70;;;1.10;;
3865;SDS011;1948;53.250;10.412;2022-10-16T09:53:03;1.70;;;1.00;;
3865;SDS011;1948;53.250;10.412;2022-10-16T09:55:47;2.67;;;1.40;;
3865;SDS011;1948;53.250;10.412;2022-10-16T09:58:21;2.63;;;1.30;;
3865;SDS011;1948;53.250;10.412;2022-10-16T10:00:53;3.63;;;1.30;;
3865;SDS011;1948;53.250;10.412;2022-10-16T10:03:33;4.23;;;1.30;;
3865;SDS011;1948;53.250;10.412;2022-10-16T10:06:14;4.67;;;1.20;;
3865;SDS011;1948;53.250;10.412;2022-10-16T10:08:52;1.57;;;1.10;;
3865;SDS011;1948;53.250;10.412;2022-10-16T10:11:38;4.83;;;1.03;;
3865;SDS011;1948;53.250;10.412;2022-10-16T10:14:19;8.53;;;1.70;;
3865;SDS011;1948;53.250;10.412;2022-10-16T10:16:51;7.30;;;0.97;;
3865;SDS011;1948;53.250;10.412;2022-10-16T10:19:28;4.90;;;1.03;;
3865;SDS011;1948;53.250;10.412;2022-10-16T10:22:16;1.43;;;0.80;;
3865;SDS011;1948;53.250;10.412;2022-10-16T10:37:00;1.33;;;0.93;;
3865;SDS011;1948;53.250;10.412;2022-10-16T10:39:55;14.73;;;1.00;;
3865;SDS011;1948;53.250;10.412;2022-10-16T10:46:17;1.30;;;1.13;;
3865;SDS011;1948;53.250;10.412;2022-10-16T10:52:34;2.40;;;1.00;;
3865;SDS011;1948;53.250;10.412;2022-10-16T11:07:18;3.27;;;0.90;;
3865;SDS011;1948;53.250;10.412;2022-10-16T11:09:53;1.93;;;1.00;;
3865;SDS011;1948;53.250;10.412;2022-10-16T11:12:46;1.80;;;0.70;;
3865;SDS011;1948;53.250;10.412;2022-10-16T11:15:30;2.90;;;1.90;;
3865;SDS011;1948;53.250;10.412;2022-10-16T11:18:16;3.03;;;1.20;;
3865;SDS011;1948;53.250;10.412;2022-10-16T11:21:11;4.50;;;0.97;;
3865;SDS011;1948;53.250;10.412;2022-10-16T11:23:48;5.07;;;2.00;;
3865;SDS011;1948;53.250;10.412;2022-10-16T11:26:33;3.50;;;1.17;;
3865;SDS011;1948;53.250;10.412;2022-10-16T11:29:08;2.43;;;1.20;;
3865;SDS011;1948;53.250;10.412;2022-10-16T11:31:48;1.87;;;0.97;;
3865;SDS011;1948;53.250;10.412;2022-10-16T11:34:36;3.90;;;1.10;;
3865;SDS011;1948;53.250;10.412;2022-10-16T11:37:17;4.00;;;0.70;;
3865;SDS011;1948;53.250;10.412;2022-10-16T11:39:48;2.20;;;0.97;;
3865;SDS011;1948;53.250;10.412;2022-10-16T11:42:37;2.27;;;1.10;;
3865;SDS011;1948;53.250;10.412;2022-10-16T11:50:53;8.63;;;1.10;;
3865;SDS011;1948;53.250;10.412;2022-10-16T11:53:38;1.60;;;1.10;;
3865;SDS011;1948;53.250;10.412;2022-10-16T11:56:30;2.20;;;1.30;;
3865;SDS011;1948;53.250;10.412;2022-10-16T11:59:05;1.80;;;1.30;;
3865;SDS011;1948;53.250;10.412;2022-10-16T12:01:46;1.93;;;1.30;;
3865;SDS011;1948;53.250;10.412;2022-10-16T12:04:49;3.20;;;1.20;;
3865;SDS011;1948;53.250;10.412;2022-10-16T12:07:47;1.00;;;0.80;;
3865;SDS011;1948;53.250;10.412;2022-10-16T12:10:26;4.00;;;1.23;;
3865;SDS011;1948;53.250;10.412;2022-10-16T12:13:00;2.60;;;0.93;;
3865;SDS011;1948;53.250;10.412;2022-10-16T12:15:31;5.50;;;1.13;;
3865;SDS011;1948;53.250;10.412;2022-10-16T12:18:21;2.40;;;1.50;;
3865;SDS011;1948;53.250;10.412;2022-10-16T12:20:56;7.50;;;1.00;;
3865;SDS011;1948;53.250;10.412;2022-10-16T12:23:32;8.50;;;1.20;;
3865;SDS011;1948;53.250;10.412;2022-10-16T12:26:04;2.37;;;1.70;;
3865;SDS011;1948;53.250;10.412;2022-10-16T12:28:32;1.63;;;1.10;;
3865;SDS011;1948;53.250;10.412;2022-10-16T12:31:01;1.50;;;1.40;;
3865;SDS011;1948;53.250;10.412;2022-10-16T12:33:35;1.07;;;0.97;;
3865;SDS011;1948;53.250;10.412;2022-10-16T12:36:27;4.80;;;1.13;;
3865;SDS011;1948;53.250;10.412;2022-10-16T12:39:02;4.27;;;1.37;;
3865;SDS011;1948;53.250;10.412;2022-10-16T12:41:33;2.40;;;1.20;;
3865;SDS011;1948;53.250;10.412;2022-10-16T12:44:20;2.23;;;1.50;;
3865;SDS011;1948;53.250;10.412;2022-10-16T12:46:58;9.83;;;1.60;;
3865;SDS011;1948;53.250;10.412;2022-10-16T12:49:31;4.00;;;2.00;;
3865;SDS011;1948;53.250;10.412;2022-10-16T12:52:22;1.37;;;1.03;;
3865;SDS011;1948;53.250;10.412;2022-10-16T12:55:01;3.80;;;2.70;;
3865;SDS011;1948;53.250;10.412;2022-10-16T12:57:38;4.43;;;1.53;;
3865;SDS011;1948;53.250;10.412;2022-10-16T13:00:24;7.93;;;1.33;;
3865;SDS011;1948;53.250;10.412;2022-10-16T13:14:41;3.83;;;1.50;;
3865;SDS011;1948;53.250;10.412;2022-10-16T13:17:35;1.40;;;1.30;;
3865;SDS011;1948;53.250;10.412;2022-10-16T13:20:46;3.30;;;1.50;;
3865;SDS011;1948;53.250;10.412;2022-10-16T13:23:46;3.13;;;1.20;;
3865;SDS011;1948;53.250;10.412;2022-10-16T13:29:32;5.80;;;1.10;;
3865;SDS011;1948;53.250;10.412;2022-10-16T13:32:00;3.87;;;1.20;;
3865;SDS011;1948;53.250;10.412;2022-10-16T13:34:44;2.20;;;1.10;;
3865;SDS011;1948;53.250;10.412;2022-10-16T13:37:19;3.80;;;1.23;;
3865;SDS011;1948;53.250;10.412;2022-10-16T13:40:01;2.00;;;1.00;;
3865;SDS011;1948;53.250;10.412;2022-10-16T13:42:43;2.50;;;1.40;;
3865;SDS011;1948;53.250;10.412;2022-10-16T13:45:17;0.97;;;0.97;;
3865;SDS011;1948;53.250;10.412;2022-10-16T13:47:47;1.30;;;1.20;;
3865;SDS011;1948;53.250;10.412;2022-10-16T13:50:17;1.13;;;1.03;;
3865;SDS011;1948;53.250;10.412;2022-10-16T13:52:49;2.70;;;1.40;;
3865;SDS011;1948;53.250;10.412;2022-10-16T13:55:32;1.30;;;1.13;;
3865;SDS011;1948;53.250;10.412;2022-10-16T13:58:11;7.30;;;1.40;;
3865;SDS011;1948;53.250;10.412;2022-10-16T14:00:41;2.10;;;1.00;;
3865;SDS011;1948;53.250;10.412;2022-10-16T14:03:27;3.47;;;1.40;;
3865;SDS011;1948;53.250;10.412;2022-10-16T14:05:57;2.80;;;1.20;;
3865;SDS011;1948;53.250;10.412;2022-10-16T14:08:30;1.13;;;1.03;;
3865;SDS011;1948;53.250;10.412;2022-10-16T14:11:01;6.53;;;1.20;;
3865;SDS011;1948;53.250;10.412;2022-10-16T14:13:33;2.60;;;1.10;;
3865;SDS011;1948;53.250;10.412;2022-10-16T14:16:16;1.10;;;1.10;;
3865;SDS011;1948;53.250;10.412;2022-10-16T14:18:50;1.03;;;0.93;;
3865;SDS011;1948;53.250;10.412;2022-10-16T14:21:26;4.00;;;1.50;;
3865;SDS011;1948;53.250;10.412;2022-10-16T14:23:55;3.47;;;1.23;;
3865;SDS011;1948;53.250;10.412;2022-10-16T14:26:30;8.80;;;1.50;;
3865;SDS011;1948;53.250;10.412;2022-10-16T14:29:18;2.37;;;1.40;;
3865;SDS011;1948;53.250;10.412;2022-10-16T14:34:38;1.53;;;1.23;;
3865;SDS011;1948;53.250;10.412;2022-10-16T14:37:21;2.70;;;1.30;;
3865;SDS011;1948;53.250;10.412;2022-10-16T14:39:58;2.30;;;1.10;;
3865;SDS011;1948;53.250;10.412;2022-10-16T14:42:27;9.07;;;1.73;;
3865;SDS011;1948;53.250;10.412;2022-10-16T14:44:57;1.40;;;1.30;;
3865;SDS011;1948;53.250;10.412;2022-10-16T14:47:24;3.90;;;1.63;;
3865;SDS011;1948;53.250;10.412;2022-10-16T14:49:53;8.10;;;1.10;;
3865;SDS011;1948;53.250;10.412;2022-10-16T14:52:25;13.00;;;1.53;;
3865;SDS011;1948;53.250;10.412;2022-10-16T14:54:52;5.53;;;1.80;;
3865;SDS011;1948;53.250;10.412;2022-10-16T14:57:26;3.57;;;1.50;;
3865;SDS011;1948;53.250;10.412;2022-10-16T15:00:02;5.50;;;1.37;;
3865;SDS011;1948;53.250;10.412;2022-10-16T15:02:35;6.60;;;1.60;;
3865;SDS011;1948;53.250;10.412;2022-10-16T15:07:50;1.70;;;1.17;;
3865;SDS011;1948;53.250;10.412;2022-10-16T15:10:22;4.10;;;1.57;;
3865;SDS011;1948;53.250;10.412;2022-10-16T15:12:51;1.33;;;1.23;;
3865;SDS011;1948;53.250;10.412;2022-10-16T15:18:06;5.43;;;1.50;;
3865;SDS011;1948;53.250;10.412;2022-10-16T15:20:34;5.70;;;1.30;;
3865;SDS011;1948;53.250;10.412;2022-10-16T15:23:05;1.27;;;1.27;;
3865;SDS011;1948;53.250;10.412;2022-10-16T15:25:45;1.23;;;1.20;;
3865;SDS011;1948;53.250;10.412;2022-10-16T15:28:20;10.97;;;1.87;;
3865;SDS011;1948;53.250;10.412;2022-10-16T15:30:56;4.17;;;1.60;;
3865;SDS011;1948;53.250;10.412;2022-10-16T15:33:24;3.80;;;1.50;;
3865;SDS011;1948;53.250;10.412;2022-10-16T15:36:05;12.93;;;2.10;;
3865;SDS011;1948;53.250;10.412;2022-10-16T15:38:32;4.97;;;1.40;;
3865;SDS011;1948;53.250;10.412;2022-10-16T15:41:04;4.43;;;2.00;;
3865;SDS011;1948;53.250;10.412;2022-10-16T15:43:31;4.60;;;1.53;;
3865;SDS011;1948;53.250;10.412;2022-10-16T15:46:01;8.43;;;1.77;;
3865;SDS011;1948;53.250;10.412;2022-10-16T15:48:32;15.77;;;1.50;;
3865;SDS011;1948;53.250;10.412;2022-10-16T15:50:59;5.03;;;1.50;;
3865;SDS011;1948;53.250;10.412;2022-10-16T15:53:31;3.90;;;1.70;;
3865;SDS011;1948;53.250;10.412;2022-10-16T15:56:06;11.07;;;2.63;;
3865;SDS011;1948;53.250;10.412;2022-10-16T15:58:37;6.13;;;1.77;;
3865;SDS011;1948;53.250;10.412;2022-10-16T16:01:04;3.30;;;1.80;;
3865;SDS011;1948;53.250;10.412;2022-10-16T16:03:32;4.00;;;1.57;;
3865;SDS011;1948;53.250;10.412;2022-10-16T16:06:03;3.53;;;2.30;;
3865;SDS011;1948;53.250;10.412;2022-10-16T16:08:32;1.77;;;1.63;;
3865;SDS011;1948;53.250;10.412;2022-10-16T16:11:13;6.00;;;2.23;;
3865;SDS011;1948;53.250;10.412;2022-10-16T16:13:42;5.53;;;2.00;;
3865;SDS011;1948;53.250;10.412;2022-10-16T16:16:10;7.03;;;2.30;;
3865;SDS011;1948;53.250;10.412;2022-10-16T16:18:41;1.93;;;1.70;;
3865;SDS011;1948;53.250;10.412;2022-10-16T16:21:09;4.60;;;2.20;;
3865;SDS011;1948;53.250;10.412;2022-10-16T16:23:37;6.10;;;1.77;;
3865;SDS011;1948;53.250;10.412;2022-10-16T16:28:38;2.63;;;2.03;;
3865;SDS011;1948;53.250;10.412;2022-10-16T16:31:09;9.23;;;1.93;;
3865;SDS011;1948;53.250;10.412;2022-10-16T16:33:38;4.10;;;2.07;;
3865;SDS011;1948;53.250;10.412;2022-10-16T16:36:05;8.70;;;2.80;;
3865;SDS011;1948;53.250;10.412;2022-10-16T16:38:39;7.73;;;2.57;;
3865;SDS011;1948;53.250;10.412;2022-10-16T16:41:13;15.63;;;2.90;;
3865;SDS011;1948;53.250;10.412;2022-10-16T16:43:41;7.20;;;3.17;;
3865;SDS011;1948;53.250;10.412;2022-10-16T16:46:09;18.17;;;3.40;;
3865;SDS011;1948;53.250;10.412;2022-10-16T16:48:39;3.23;;;3.03;;
3865;SDS011;1948;53.250;10.412;2022-10-16T16:51:10;4.53;;;3.23;;
3865;SDS011;1948;53.250;10.412;2022-10-16T16:53:44;14.63;;;4.30;;
3865;SDS011;1948;53.250;10.412;2022-10-16T16:56:19;13.77;;;3.70;;
3865;SDS011;1948;53.250;10.412;2022-10-16T16:58:52;8.63;;;4.53;;
3865;SDS011;1948;53.250;10.412;2022-10-16T17:01:24;7.30;;;4.40;;
3865;SDS011;1948;53.250;10.412;2022-10-16T17:03:56;5.10;;;4.10;;
3865;SDS011;1948;53.250;10.412;2022-10-16T17:06:27;16.40;;;5.00;;
3865;SDS011;1948;53.250;10.412;2022-10-16T17:09:00;15.20;;;3.80;;
3865;SDS011;1948;53.250;10.412;2022-10-16T17:11:29;8.03;;;3.93;;
3865;SDS011;1948;53.250;10.412;2022-10-16T17:13:56;21.67;;;4.17;;